createdAt,value
2019-04-10T00:01:25.792Z,62.87
2019-04-10T00:03:57.212Z,63.13
2019-04-10T00:06:28.578Z,61.07
2019-04-10T00:09:00.893Z,63.47
2019-04-10T00:11:34.579Z,63.00
2019-04-10T00:14:08.257Z,62.67
2019-04-10T00:16:40.478Z,64.20
2019-04-10T00:19:12.793Z,66.80
2019-04-10T00:21:45.162Z,70.47
2019-04-10T00:24:16.713Z,62.30
2019-04-10T00:26:48.142Z,63.27
2019-04-10T00:29:20.317Z,63.87
2019-04-10T00:32:01.674Z,57.60
2019-04-10T00:34:32.356Z,60.97
2019-04-10T00:37:03.871Z,61.77
2019-04-10T00:39:35.230Z,56.40
2019-04-10T00:42:06.640Z,60.33
2019-04-10T00:44:38.016Z,62.30
2019-04-10T00:47:09.454Z,59.90
2019-04-10T00:49:41.761Z,61.63
2019-04-10T00:52:14.262Z,59.43
2019-04-10T00:54:46.684Z,61.37
2019-04-10T00:57:18.256Z,61.80
2019-04-10T00:59:50.500Z,59.70
2019-04-10T01:02:22.670Z,58.67
2019-04-10T01:04:54.963Z,61.63
2019-04-10T01:07:36.478Z,60.20
2019-04-10T01:10:02.488Z,58.33
2019-04-10T01:12:34.229Z,58.57
2019-04-10T01:15:06.699Z,60.40
2019-04-10T01:17:38.290Z,60.77
2019-04-10T01:20:09.774Z,57.93
2019-04-10T01:22:41.510Z,61.63
2019-04-10T01:25:12.922Z,56.10
2019-04-10T01:27:44.553Z,58.80
2019-04-10T01:30:16.264Z,66.13
2019-04-10T01:32:48.079Z,58.47
2019-04-10T01:35:20.277Z,61.23
2019-04-10T01:37:56.196Z,64.00
2019-04-10T01:40:24.862Z,61.63
2019-04-10T01:43:07.153Z,61.87
2019-04-10T01:45:29.358Z,58.33
2019-04-10T01:48:01.640Z,59.60
2019-04-10T01:50:34.787Z,65.07
2019-04-10T01:53:06.180Z,67.17
2019-04-10T01:55:38.742Z,61.20
2019-04-10T01:58:14.626Z,60.90
2019-04-10T02:00:52.096Z,64.27
2019-04-10T02:03:23.602Z,61.00
2019-04-10T02:05:55.045Z,63.27
2019-04-10T02:08:26.412Z,78.23
2019-04-10T02:10:58.650Z,71.93
2019-04-10T02:13:30.008Z,69.47
2019-04-10T02:16:01.422Z,69.10
2019-04-10T02:18:33.145Z,64.47
2019-04-10T02:21:04.605Z,63.27
2019-04-10T02:23:36.528Z,65.43
2019-04-10T02:26:07.962Z,63.47
2019-04-10T02:28:39.526Z,68.03
2019-04-10T02:31:12.366Z,61.40
2019-04-10T02:33:43.969Z,63.07
2019-04-10T02:36:15.354Z,65.93
2019-04-10T02:38:59.286Z,62.30
2019-04-10T02:41:21.612Z,65.37
2019-04-10T02:43:53.727Z,66.13
2019-04-10T02:46:25.192Z,69.13
2019-04-10T02:48:57.841Z,64.57
2019-04-10T02:51:30.576Z,65.33
2019-04-10T02:54:02.581Z,66.03
2019-04-10T02:56:34.352Z,60.53
2019-04-10T02:59:07.379Z,70.70
2019-04-10T03:01:39.923Z,68.03
2019-04-10T03:04:13.238Z,67.10
2019-04-10T03:06:45.267Z,63.77
2019-04-10T03:09:32.490Z,58.70
2019-04-10T03:11:49.921Z,68.97
2019-04-10T03:14:21.353Z,62.67
2019-04-10T03:16:53.763Z,60.77
2019-04-10T03:19:25.515Z,63.57
2019-04-10T03:21:57.671Z,63.27
2019-04-10T03:24:29.501Z,75.07
2019-04-10T03:27:01.741Z,65.23
2019-04-10T03:29:33.189Z,62.87
2019-04-10T03:32:23.679Z,69.77
2019-04-10T03:34:58.511Z,70.73
2019-04-10T03:37:29.928Z,71.30
2019-04-10T03:40:01.331Z,66.97
2019-04-10T03:42:32.895Z,68.13
2019-04-10T03:45:05.485Z,68.27
2019-04-10T03:47:37.707Z,66.33
2019-04-10T03:50:10.802Z,70.80
2019-04-10T03:52:43.218Z,71.33
2019-04-10T03:55:17.491Z,69.93
2019-04-10T03:57:49.157Z,71.73
2019-04-10T04:00:21.015Z,65.90
2019-04-10T04:02:52.517Z,71.33
2019-04-10T04:05:23.916Z,73.20
2019-04-10T04:07:57.183Z,71.00
2019-04-10T04:10:28.817Z,76.40
2019-04-10T04:13:01.483Z,72.07
2019-04-10T04:15:33.748Z,78.23
2019-04-10T04:18:05.197Z,62.33
2019-04-10T04:20:37.146Z,75.70
2019-04-10T04:23:09.382Z,73.87
2019-04-10T04:25:40.999Z,71.27
2019-04-10T04:28:12.415Z,71.33
2019-04-10T04:30:45.699Z,68.40
2019-04-10T04:33:17.095Z,73.20
2019-04-10T04:35:48.507Z,65.97
2019-04-10T04:38:20.076Z,69.43
2019-04-10T04:40:51.870Z,69.00
2019-04-10T04:43:25.126Z,70.57
2019-04-10T04:45:56.587Z,70.50
2019-04-10T04:48:31.850Z,69.30
2019-04-10T04:51:03.344Z,69.23
2019-04-10T04:53:34.751Z,71.83
2019-04-10T04:56:07.288Z,66.93
2019-04-10T04:58:38.849Z,74.47
2019-04-10T05:01:10.580Z,71.07
2019-04-10T05:03:42.122Z,75.70
2019-04-10T05:06:13.445Z,83.87
2019-04-10T05:08:44.809Z,76.90
2019-04-10T05:11:20.335Z,74.87
2019-04-10T05:13:53.001Z,75.00
2019-04-10T05:16:24.849Z,81.07
2019-04-10T05:18:56.359Z,92.43
2019-04-10T05:21:27.737Z,81.53
2019-04-10T05:23:59.696Z,78.83
2019-04-10T05:26:32.259Z,77.40
2019-04-10T05:29:04.708Z,74.83
2019-04-10T05:31:36.362Z,73.20
2019-04-10T05:34:07.834Z,82.97
2019-04-10T05:36:39.986Z,74.00
2019-04-10T05:39:12.598Z,79.40
2019-04-10T05:41:44.076Z,80.37
2019-04-10T05:44:16.546Z,79.53
2019-04-10T05:46:49.131Z,76.60
2019-04-10T05:49:20.739Z,78.70
2019-04-10T05:51:52.100Z,83.10
2019-04-10T05:54:24.603Z,77.37
2019-04-10T05:56:56.076Z,78.87
2019-04-10T05:59:28.076Z,79.90
2019-04-10T06:01:59.480Z,79.53
2019-04-10T06:04:31.559Z,75.37
2019-04-10T06:07:03.161Z,85.97
2019-04-10T06:09:36.569Z,72.97
2019-04-10T06:12:07.999Z,66.40
2019-04-10T06:14:40.071Z,67.00
2019-04-10T06:17:11.458Z,65.00
2019-04-10T06:19:42.873Z,63.67
2019-04-10T06:22:14.605Z,59.63
2019-04-10T06:24:46.731Z,55.67
2019-04-10T06:27:18.540Z,57.80
2019-04-10T06:29:50.947Z,50.97
2019-04-10T06:32:22.376Z,55.13
2019-04-10T06:34:53.732Z,48.20
2019-04-10T06:37:26.164Z,47.87
2019-04-10T06:40:07.719Z,52.53
2019-04-10T06:42:38.835Z,52.77
2019-04-10T06:45:05.762Z,47.27
2019-04-10T06:47:38.253Z,51.97
2019-04-10T06:50:10.677Z,50.80
2019-04-10T06:52:42.974Z,47.90
2019-04-10T06:55:15.355Z,48.53
2019-04-10T06:57:51.999Z,45.73
2019-04-10T07:00:21.288Z,51.27
2019-04-10T07:02:52.794Z,49.13
2019-04-10T07:05:24.261Z,47.93
2019-04-10T07:08:05.970Z,41.60
2019-04-10T07:10:43.769Z,45.57
2019-04-10T07:13:07.719Z,45.00
2019-04-10T07:15:40.935Z,42.23
2019-04-10T07:18:15.863Z,46.33
2019-04-10T07:20:46.351Z,46.63
2019-04-10T07:23:24.168Z,44.50
2019-04-10T07:25:52.008Z,43.13
2019-04-10T07:28:23.795Z,43.97
2019-04-10T07:30:59.393Z,43.77
2019-04-10T07:33:28.774Z,42.87
2019-04-10T07:36:04.205Z,46.07
2019-04-10T07:38:33.378Z,39.73
2019-04-10T07:41:11.173Z,45.43
2019-04-10T07:43:38.645Z,43.13
2019-04-10T07:46:10.111Z,41.70
2019-04-10T07:48:41.545Z,41.83
2019-04-10T07:51:13.543Z,45.43
2019-04-10T07:53:44.970Z,43.73
2019-04-10T07:56:20.374Z,41.17
2019-04-10T07:58:49.512Z,43.57
2019-04-10T08:01:22.031Z,43.30
2019-04-10T08:03:54.013Z,41.97
2019-04-10T08:06:25.671Z,39.73
2019-04-10T08:08:57.180Z,38.07
2019-04-10T08:11:29.582Z,40.83
2019-04-10T08:14:01.475Z,43.87
2019-04-10T08:16:33.001Z,35.83
2019-04-10T08:19:04.482Z,40.47
2019-04-10T08:21:35.981Z,38.20
2019-04-10T08:24:07.458Z,38.67
2019-04-10T08:26:38.945Z,37.67
2019-04-10T08:29:10.405Z,42.13
2019-04-10T08:31:41.848Z,38.80
2019-04-10T08:34:13.336Z,37.63
2019-04-10T08:36:45.719Z,37.50
2019-04-10T08:39:28.448Z,39.27
2019-04-10T08:41:50.347Z,39.27
2019-04-10T08:44:22.235Z,36.83
2019-04-10T08:46:54.650Z,38.43
2019-04-10T08:49:26.176Z,37.03
2019-04-10T08:52:00.619Z,39.97
2019-04-10T08:54:32.247Z,36.53
2019-04-10T08:57:03.711Z,36.80
2019-04-10T08:59:36.829Z,43.90
2019-04-10T09:02:08.213Z,40.80
2019-04-10T09:04:39.769Z,36.00
2019-04-10T09:07:11.688Z,36.23
2019-04-10T09:09:43.195Z,39.90
2019-04-10T09:12:15.761Z,37.77
2019-04-10T09:14:47.599Z,41.27
2019-04-10T09:17:19.438Z,38.13
2019-04-10T09:19:51.906Z,40.57
2019-04-10T09:22:24.632Z,43.80
2019-04-10T09:24:56.033Z,38.53
2019-04-10T09:27:27.515Z,37.73
2019-04-10T09:29:59.011Z,37.67
2019-04-10T09:32:30.736Z,41.70
2019-04-10T09:35:02.648Z,38.77
2019-04-10T09:37:34.492Z,38.80
2019-04-10T09:40:09.122Z,36.93
2019-04-10T09:42:41.703Z,38.77
2019-04-10T09:45:13.577Z,36.37
2019-04-10T09:47:45.844Z,35.10
2019-04-10T09:50:17.325Z,40.13
2019-04-10T09:52:48.812Z,40.63
2019-04-10T09:55:20.218Z,36.20
2019-04-10T09:57:51.818Z,37.30
2019-04-10T10:00:24.055Z,41.73
2019-04-10T10:02:55.643Z,38.87
2019-04-10T10:05:27.061Z,36.13
2019-04-10T10:07:58.519Z,36.97
2019-04-10T10:10:31.393Z,38.83
2019-04-10T10:13:03.363Z,37.37
2019-04-10T10:15:35.580Z,36.63
2019-04-10T10:18:07.114Z,38.97
2019-04-10T10:20:39.641Z,36.27
2019-04-10T10:23:11.806Z,38.90
2019-04-10T10:25:45.706Z,38.13
2019-04-10T10:28:17.169Z,39.37
2019-04-10T10:30:49.434Z,36.10
2019-04-10T10:33:22.098Z,37.10
2019-04-10T10:35:53.638Z,38.37
2019-04-10T10:38:25.219Z,37.97
2019-04-10T10:40:57.058Z,38.27
2019-04-10T10:43:28.839Z,33.37
2019-04-10T10:46:00.955Z,36.80
2019-04-10T10:48:32.333Z,34.77
2019-04-10T10:51:04.594Z,37.03
2019-04-10T10:53:36.466Z,40.07
2019-04-10T10:56:07.936Z,36.87
2019-04-10T10:58:39.751Z,37.77
2019-04-10T11:01:11.608Z,36.43
2019-04-10T11:03:43.057Z,35.83
2019-04-10T11:06:14.967Z,33.50
2019-04-10T11:08:47.805Z,38.00
2019-04-10T11:11:20.021Z,39.90
2019-04-10T11:13:51.430Z,36.67
2019-04-10T11:16:23.254Z,39.07
2019-04-10T11:18:55.084Z,38.40
2019-04-10T11:21:27.391Z,36.13
2019-04-10T11:24:00.995Z,35.83
2019-04-10T11:26:33.473Z,33.67
2019-04-10T11:29:05.547Z,37.00
2019-04-10T11:31:39.580Z,39.73
2019-04-10T11:34:11.312Z,36.33
2019-04-10T11:36:43.941Z,36.10
2019-04-10T11:39:22.650Z,36.97
2019-04-10T11:41:50.263Z,38.00
2019-04-10T11:44:21.810Z,40.77
2019-04-10T11:46:55.604Z,33.33
2019-04-10T11:49:27.711Z,35.60
2019-04-10T11:52:01.029Z,35.87
2019-04-10T11:54:37.688Z,34.30
2019-04-10T11:57:07.109Z,32.77
2019-04-10T11:59:40.898Z,34.90
2019-04-10T12:02:12.252Z,41.03
2019-04-10T12:04:53.852Z,34.77
2019-04-10T12:07:52.548Z,35.07
2019-04-10T12:12:24.384Z,39.40
2019-04-10T12:14:56.195Z,37.47
2019-04-10T12:17:27.772Z,35.40
2019-04-10T12:19:59.146Z,38.13
2019-04-10T12:22:31.637Z,37.27
2019-04-10T12:25:03.110Z,39.17
2019-04-10T12:27:34.631Z,35.15
2019-04-10T12:30:07.996Z,34.13
2019-04-10T12:32:39.460Z,34.93
2019-04-10T12:35:10.996Z,37.77
2019-04-10T12:37:43.339Z,35.23
2019-04-10T12:40:14.772Z,35.43
2019-04-10T12:42:46.244Z,37.20
2019-04-10T12:45:18.067Z,34.70
2019-04-10T12:47:50.246Z,34.30
2019-04-10T12:50:22.592Z,33.20
2019-04-10T12:52:54.715Z,37.33
2019-04-10T12:55:26.303Z,35.27
2019-04-10T12:58:06.694Z,35.90
2019-04-10T13:00:31.899Z,34.17
2019-04-10T13:03:03.261Z,33.70
2019-04-10T13:05:35.633Z,38.60
2019-04-10T13:08:19.115Z,31.13
2019-04-10T13:10:40.235Z,34.03
2019-04-10T13:13:11.661Z,32.83
2019-04-10T13:15:43.535Z,34.33
2019-04-10T13:18:15.008Z,33.13
2019-04-10T13:20:46.981Z,32.80
2019-04-10T13:23:18.731Z,31.97
2019-04-10T13:25:59.817Z,32.77
2019-04-10T13:28:23.436Z,33.23
2019-04-10T13:30:56.595Z,31.97
2019-04-10T13:33:28.887Z,34.17
2019-04-10T13:36:01.313Z,32.00
2019-04-10T13:38:34.467Z,33.20
2019-04-10T13:41:06.073Z,32.30
2019-04-10T13:43:38.055Z,30.10
2019-04-10T13:46:10.824Z,26.03
2019-04-10T13:48:42.205Z,25.87
2019-04-10T13:51:13.661Z,26.33
2019-04-10T13:53:46.024Z,26.53
2019-04-10T13:56:17.475Z,23.83
2019-04-10T13:58:48.960Z,24.33
2019-04-10T14:01:27.436Z,28.07
2019-04-10T14:03:58.853Z,27.13
2019-04-10T14:06:30.369Z,25.93
2019-04-10T14:09:15.211Z,25.67
2019-04-10T14:11:37.472Z,24.97
2019-04-10T14:14:08.916Z,29.73
2019-04-10T14:16:41.165Z,26.00
2019-04-10T14:19:12.909Z,26.57
2019-04-10T14:21:45.010Z,26.20
2019-04-10T14:24:17.688Z,27.67
2019-04-10T14:27:05.798Z,27.37
2019-04-10T14:29:38.641Z,24.73
2019-04-10T14:32:13.368Z,25.97
2019-04-10T14:34:44.945Z,25.13
2019-04-10T14:37:16.846Z,23.40
2019-04-10T14:39:49.296Z,28.67
2019-04-10T14:42:20.733Z,25.20
2019-04-10T14:44:53.055Z,25.87
2019-04-10T14:47:25.560Z,25.33
2019-04-10T14:49:58.012Z,27.93
2019-04-10T14:52:29.589Z,25.27
2019-04-10T14:55:02.223Z,26.80
2019-04-10T14:57:34.914Z,24.23
2019-04-10T15:00:10.439Z,25.50
2019-04-10T15:02:42.998Z,25.93
2019-04-10T15:05:15.494Z,26.80
2019-04-10T15:07:47.022Z,28.37
2019-04-10T15:10:18.425Z,24.60
2019-04-10T15:12:49.912Z,27.13
2019-04-10T15:15:21.347Z,29.13
2019-04-10T15:17:54.080Z,24.90
2019-04-10T15:20:25.555Z,23.50
2019-04-10T15:22:56.955Z,25.00
2019-04-10T15:25:28.352Z,26.40
2019-04-10T15:28:00.142Z,24.77
2019-04-10T15:30:32.753Z,28.17
2019-04-10T15:33:04.577Z,26.73
2019-04-10T15:35:36.088Z,24.47
2019-04-10T15:38:07.539Z,25.70
2019-04-10T15:40:38.944Z,27.47
2019-04-10T15:43:10.766Z,27.83
2019-04-10T15:45:42.233Z,26.80
2019-04-10T15:48:13.612Z,26.03
2019-04-10T15:50:45.063Z,27.20
2019-04-10T15:53:16.434Z,28.10
2019-04-10T15:55:47.839Z,29.17
2019-04-10T15:58:21.423Z,27.43
2019-04-10T16:00:53.807Z,24.83
2019-04-10T16:03:26.162Z,25.43
2019-04-10T16:05:57.774Z,23.40
2019-04-10T16:08:29.241Z,31.13
2019-04-10T16:11:18.008Z,21.10
2019-04-10T16:13:52.679Z,23.63
2019-04-10T16:16:50.741Z,24.40
2019-04-10T16:19:45.052Z,25.67
2019-04-10T16:22:29.325Z,25.53
2019-04-10T16:25:03.468Z,25.43
2019-04-10T16:27:34.887Z,25.70
2019-04-10T16:30:10.276Z,22.93
2019-04-10T16:32:41.832Z,21.50
2019-04-10T16:35:15.679Z,22.80
2019-04-10T16:37:49.818Z,24.83
2019-04-10T16:40:22.598Z,21.30
2019-04-10T16:42:55.086Z,21.53
2019-04-10T16:45:26.612Z,20.83
2019-04-10T16:47:58.803Z,21.27
2019-04-10T16:50:30.180Z,21.40
2019-04-10T16:53:01.579Z,22.00
2019-04-10T16:55:32.961Z,19.20
2019-04-10T16:58:04.323Z,22.27
2019-04-10T17:00:35.733Z,18.53
2019-04-10T17:03:07.250Z,18.83
2019-04-10T17:05:39.666Z,22.13
2019-04-10T17:08:11.954Z,18.47
2019-04-10T17:10:44.849Z,19.90
2019-04-10T17:13:16.326Z,22.97
2019-04-10T17:15:50.111Z,19.60
2019-04-10T17:18:21.505Z,22.67
2019-04-10T17:20:52.989Z,18.07
2019-04-10T17:23:24.794Z,19.67
2019-04-10T17:25:56.284Z,17.67
2019-04-10T17:28:28.320Z,20.03
2019-04-10T17:31:00.288Z,20.47
2019-04-10T17:33:32.297Z,21.63
2019-04-10T17:36:04.262Z,20.80
2019-04-10T17:38:36.504Z,23.53
2019-04-10T17:41:09.231Z,22.50
2019-04-10T17:43:41.283Z,18.70
2019-04-10T17:46:13.219Z,19.00
2019-04-10T17:48:46.114Z,22.23
2019-04-10T17:51:17.833Z,18.97
2019-04-10T17:53:49.595Z,20.47
2019-04-10T17:56:22.192Z,18.80
2019-04-10T17:58:54.038Z,19.40
2019-04-10T18:01:27.168Z,19.80
2019-04-10T18:04:01.831Z,19.57
2019-04-10T18:06:33.208Z,21.97
2019-04-10T18:09:07.538Z,20.23
2019-04-10T18:11:41.432Z,17.73
2019-04-10T18:14:15.390Z,22.97
2019-04-10T18:16:46.858Z,19.73
2019-04-10T18:19:19.102Z,19.43
2019-04-10T18:21:50.565Z,21.70
2019-04-10T18:24:22.145Z,18.93
2019-04-10T18:26:55.082Z,21.83
2019-04-10T18:29:27.417Z,22.13
2019-04-10T18:32:00.484Z,23.13
2019-04-10T18:34:32.010Z,19.57
2019-04-10T18:37:04.407Z,21.60
2019-04-10T18:39:36.736Z,24.43
2019-04-10T18:42:08.218Z,19.37
2019-04-10T18:44:39.668Z,20.33
2019-04-10T18:47:11.149Z,21.87
2019-04-10T18:49:43.368Z,19.83
2019-04-10T18:52:15.118Z,20.20
2019-04-10T18:54:46.515Z,22.40
2019-04-10T18:57:17.922Z,24.90
2019-04-10T19:00:08.043Z,19.87
2019-04-10T19:03:01.697Z,20.03
2019-04-10T19:05:36.932Z,20.00
2019-04-10T19:08:11.658Z,20.67
2019-04-10T19:10:43.214Z,20.90
2019-04-10T19:13:15.069Z,19.87
2019-04-10T19:15:46.984Z,20.90
2019-04-10T19:18:19.467Z,18.37
2019-04-10T19:20:51.551Z,20.67
2019-04-10T19:23:23.904Z,20.70
2019-04-10T19:25:56.780Z,22.23
2019-04-10T19:28:35.048Z,21.63
2019-04-10T19:31:12.853Z,23.87
2019-04-10T19:33:39.838Z,18.80
2019-04-10T19:36:11.981Z,18.53
2019-04-10T19:38:43.506Z,20.03
2019-04-10T19:41:25.253Z,21.07
2019-04-10T19:43:48.564Z,19.13
2019-04-10T19:46:20.009Z,17.60
2019-04-10T19:48:53.349Z,25.20
2019-04-10T19:51:25.876Z,20.73
2019-04-10T19:53:57.653Z,18.97
2019-04-10T19:56:30.751Z,17.57
2019-04-10T19:59:02.877Z,17.63
2019-04-10T20:01:36.068Z,20.67
2019-04-10T20:04:08.277Z,18.63
2019-04-10T20:06:40.583Z,22.20
2019-04-10T20:09:14.310Z,18.10
2019-04-10T20:11:52.259Z,17.00
2019-04-10T20:14:20.054Z,21.00
2019-04-10T20:16:51.590Z,19.27
2019-04-10T20:19:22.935Z,17.30
2019-04-10T20:21:56.453Z,18.37
2019-04-10T20:24:29.312Z,16.07
2019-04-10T20:27:01.521Z,22.20
2019-04-10T20:29:32.976Z,17.27
2019-04-10T20:32:04.454Z,21.20
2019-04-10T20:34:35.842Z,16.30
2019-04-10T20:37:09.724Z,18.63
2019-04-10T20:39:41.245Z,17.00
2019-04-10T20:42:12.651Z,14.27
2019-04-10T20:44:44.997Z,20.00
2019-04-10T20:47:17.209Z,15.33
2019-04-10T20:49:49.584Z,19.17
2019-04-10T20:52:22.012Z,15.30
2019-04-10T20:54:53.510Z,16.40
2019-04-10T20:57:25.622Z,16.40
2019-04-10T20:59:57.378Z,17.73
2019-04-10T21:02:28.829Z,19.73
2019-04-10T21:05:05.785Z,16.87
2019-04-10T21:07:33.306Z,17.67
2019-04-10T21:10:06.365Z,14.20
2019-04-10T21:12:37.848Z,18.53
2019-04-10T21:15:09.287Z,21.63
2019-04-10T21:17:40.783Z,14.40
2019-04-10T21:20:13.544Z,17.93
2019-04-10T21:22:45.190Z,17.17
2019-04-10T21:25:17.045Z,17.63
2019-04-10T21:27:51.935Z,19.90
2019-04-10T21:30:37.092Z,15.83
2019-04-10T21:33:40.597Z,18.27
2019-04-10T21:36:13.483Z,15.87
2019-04-10T21:38:48.148Z,19.87
2019-04-10T21:41:20.025Z,16.97
2019-04-10T21:43:52.267Z,15.60
2019-04-10T21:46:24.229Z,19.33
2019-04-10T21:48:55.675Z,15.93
2019-04-10T21:51:27.057Z,13.40
2019-04-10T21:53:58.488Z,18.17
2019-04-10T21:56:30.931Z,18.77
2019-04-10T21:59:03.156Z,19.70
2019-04-10T22:01:34.694Z,17.03
2019-04-10T22:04:06.435Z,17.40
2019-04-10T22:07:07.671Z,15.75
2019-04-10T22:09:56.370Z,13.20
2019-04-10T22:12:36.852Z,17.53
2019-04-10T22:15:17.376Z,14.27
2019-04-10T22:17:48.704Z,16.10
2019-04-10T22:20:19.969Z,18.03
2019-04-10T22:22:51.412Z,16.40
2019-04-10T22:25:23.574Z,17.13
2019-04-10T22:27:54.914Z,17.67
2019-04-10T22:30:27.182Z,15.23
2019-04-10T22:32:58.450Z,15.17
2019-04-10T22:35:29.712Z,13.43
2019-04-10T22:38:02.506Z,15.10
2019-04-10T22:40:34.850Z,18.97
2019-04-10T22:43:06.124Z,14.83
2019-04-10T22:45:38.094Z,14.27
2019-04-10T22:48:09.462Z,13.80
2019-04-10T22:50:40.774Z,18.07
2019-04-10T22:53:13.053Z,14.10
2019-04-10T22:55:44.930Z,15.53
2019-04-10T22:58:17.104Z,15.30
2019-04-10T23:00:48.545Z,18.07
2019-04-10T23:03:20.233Z,17.50
2019-04-10T23:05:51.478Z,16.60
2019-04-10T23:08:23.181Z,14.30
2019-04-10T23:10:54.477Z,14.40
2019-04-10T23:13:25.916Z,16.23
2019-04-10T23:15:57.868Z,19.10
2019-04-10T23:18:29.741Z,12.03
2019-04-10T23:21:01.016Z,14.07
2019-04-10T23:23:32.808Z,13.67
2019-04-10T23:26:04.837Z,15.50
2019-04-10T23:28:36.218Z,14.20
2019-04-10T23:31:07.762Z,15.77
2019-04-10T23:33:39.912Z,16.87
2019-04-10T23:36:11.253Z,15.67
2019-04-10T23:38:43.705Z,15.70
2019-04-10T23:41:17.761Z,15.50
2019-04-10T23:43:49.179Z,19.20
2019-04-10T23:46:20.572Z,15.73
2019-04-10T23:48:52.932Z,19.03
2019-04-10T23:51:25.203Z,15.47
2019-04-10T23:53:57.206Z,13.33
2019-04-10T23:56:29.424Z,15.53
2019-04-10T23:59:02.494Z,14.87
